Time;durP1;ratioP1;P1;durP2;ratioP2;P2;SDS_P1;SDS_P2;PMS_P1;PMS_P2;Temp;Humidity;BMP_temperature;BMP_pressure;BME280_temperature;BME280_humidity;BME280_pressure;Samples;Min_cycle;Max_cycle;Signal;HPM_P1;HPM_P2
2021/12/31 00:00:46;;;;;;;0.53;0.20;;;;;;;;;;4976308;28;20305;-68
2021/12/31 00:03:17;;;;;;;0.40;0.40;;;;;;;;;;4974600;28;20241;-68
2021/12/31 00:05:51;;;;;;;0.30;0.27;;;;;;;;;;4989123;28;20210;-68
2021/12/31 00:08:21;;;;;;;0.33;0.33;;;;;;;;;;4975518;28;20232;-69
2021/12/31 00:10:55;;;;;;;0.23;0.23;;;;;;;;;;4973909;28;20767;-69
2021/12/31 00:13:26;;;;;;;0.40;0.37;;;;;;;;;;4963247;28;20198;-68
2021/12/31 00:15:56;;;;;;;1.17;0.30;;;;;;;;;;4972180;28;20623;-68
2021/12/31 00:18:30;;;;;;;0.30;0.30;;;;;;;;;;4975998;28;20241;-68
2021/12/31 00:21:02;;;;;;;0.40;0.40;;;;;;;;;;4959272;28;20194;-68
2021/12/31 00:23:32;;;;;;;0.33;0.33;;;;;;;;;;4958424;28;20308;-68
2021/12/31 00:26:06;;;;;;;0.20;0.20;;;;;;;;;;4972293;28;20199;-69
2021/12/31 00:28:36;;;;;;;0.20;0.20;;;;;;;;;;4963868;28;20286;-68
2021/12/31 00:31:06;;;;;;;0.37;0.37;;;;;;;;;;4971515;28;20292;-68
2021/12/31 00:33:37;;;;;;;0.30;0.20;;;;;;;;;;4975805;28;20198;-68
2021/12/31 00:36:07;;;;;;;0.30;0.30;;;;;;;;;;4976177;28;20581;-68
2021/12/31 00:38:37;;;;;;;0.83;0.30;;;;;;;;;;4975529;28;20281;-70
2021/12/31 00:41:07;;;;;;;1.03;0.60;;;;;;;;;;4971780;28;20225;-68
2021/12/31 00:43:36;;;;;;;0.77;0.53;;;;;;;;;;4975264;28;20206;-68
2021/12/31 00:46:06;;;;;;;0.60;0.33;;;;;;;;;;4967913;28;20670;-68
2021/12/31 00:48:39;;;;;;;0.40;0.40;;;;;;;;;;4970998;28;20233;-69
2021/12/31 00:51:09;;;;;;;0.20;0.20;;;;;;;;;;4956312;28;20713;-71
2021/12/31 00:53:38;;;;;;;0.23;0.23;;;;;;;;;;4955031;28;20215;-71
2021/12/31 00:56:10;;;;;;;0.40;0.20;;;;;;;;;;4971382;28;20284;-70
2021/12/31 00:58:42;;;;;;;0.33;0.33;;;;;;;;;;4972186;28;20755;-71
2021/12/31 01:01:18;;;;;;;0.77;0.47;;;;;;;;;;4974927;28;20237;-70
2021/12/31 01:03:50;;;;;;;0.23;0.23;;;;;;;;;;4975678;28;20224;-70
2021/12/31 01:06:20;;;;;;;0.30;0.27;;;;;;;;;;4975344;28;20236;-70
2021/12/31 01:08:49;;;;;;;0.33;0.33;;;;;;;;;;4973775;28;20623;-70
2021/12/31 01:11:18;;;;;;;0.23;0.23;;;;;;;;;;4974959;28;20225;-71
2021/12/31 01:13:57;;;;;;;0.27;0.27;;;;;;;;;;4975208;28;20229;-70
2021/12/31 01:16:37;;;;;;;0.20;0.20;;;;;;;;;;4974878;28;20689;-70
2021/12/31 01:21:55;;;;;;;0.20;0.20;;;;;;;;;;4955755;29;20294;-71
2021/12/31 01:24:28;;;;;;;0.17;0.17;;;;;;;;;;4961652;28;20562;-70
2021/12/31 01:26:58;;;;;;;0.33;0.33;;;;;;;;;;4974626;28;20229;-71
2021/12/31 01:29:28;;;;;;;0.97;0.27;;;;;;;;;;4968574;28;20277;-71
2021/12/31 01:31:59;;;;;;;0.30;0.30;;;;;;;;;;4973437;28;20299;-70
2021/12/31 01:34:30;;;;;;;0.40;0.37;;;;;;;;;;4957516;28;20265;-71
2021/12/31 01:37:00;;;;;;;0.30;0.30;;;;;;;;;;4961335;28;20756;-70
2021/12/31 01:39:30;;;;;;;0.47;0.37;;;;;;;;;;4965416;28;20199;-71
2021/12/31 01:42:01;;;;;;;0.33;0.33;;;;;;;;;;4974645;28;20792;-70
2021/12/31 01:44:37;;;;;;;0.33;0.33;;;;;;;;;;4974676;28;20627;-70
2021/12/31 01:47:09;;;;;;;0.33;0.33;;;;;;;;;;4974251;28;20716;-71
2021/12/31 01:49:43;;;;;;;0.37;0.33;;;;;;;;;;4966532;28;20195;-70
2021/12/31 01:52:12;;;;;;;0.13;0.13;;;;;;;;;;4955147;29;20230;-71
2021/12/31 01:54:43;;;;;;;0.37;0.37;;;;;;;;;;4972565;28;20241;-70
2021/12/31 01:57:12;;;;;;;0.30;0.30;;;;;;;;;;4974285;28;20698;-70
2021/12/31 01:59:44;;;;;;;0.47;0.40;;;;;;;;;;4973676;28;20627;-70
2021/12/31 02:02:15;;;;;;;0.30;0.30;;;;;;;;;;4974440;28;20205;-70
2021/12/31 02:04:47;;;;;;;0.30;0.30;;;;;;;;;;4973970;28;20260;-71
2021/12/31 02:07:19;;;;;;;0.20;0.20;;;;;;;;;;4973614;28;20229;-70
2021/12/31 02:09:52;;;;;;;0.20;0.20;;;;;;;;;;4972088;28;20264;-70
2021/12/31 02:12:25;;;;;;;0.30;0.30;;;;;;;;;;4974188;28;20248;-70
2021/12/31 02:14:59;;;;;;;0.40;0.40;;;;;;;;;;4967217;28;20681;-70
2021/12/31 02:17:28;;;;;;;0.40;0.40;;;;;;;;;;4955001;28;20255;-70
2021/12/31 02:20:01;;;;;;;0.40;0.40;;;;;;;;;;4959023;28;20206;-70
2021/12/31 02:22:30;;;;;;;0.43;0.40;;;;;;;;;;4958698;28;20233;-70
2021/12/31 02:25:02;;;;;;;0.30;0.30;;;;;;;;;;4973438;28;20202;-71
2021/12/31 02:27:32;;;;;;;0.30;0.30;;;;;;;;;;4973391;28;20229;-70
2021/12/31 02:30:01;;;;;;;0.57;0.57;;;;;;;;;;4971883;28;20210;-70
2021/12/31 02:32:32;;;;;;;0.50;0.50;;;;;;;;;;4984432;28;20304;-72
2021/12/31 02:35:06;;;;;;;1.10;0.37;;;;;;;;;;4974215;28;20206;-70
2021/12/31 02:37:37;;;;;;;0.40;0.37;;;;;;;;;;4973300;28;20256;-71
2021/12/31 02:40:13;;;;;;;0.30;0.30;;;;;;;;;;4964903;28;20290;-71
2021/12/31 02:42:44;;;;;;;0.43;0.43;;;;;;;;;;4955135;28;20198;-71
2021/12/31 02:45:14;;;;;;;0.43;0.43;;;;;;;;;;4955854;28;20213;-70
2021/12/31 02:47:45;;;;;;;0.37;0.37;;;;;;;;;;4972309;28;20312;-70
2021/12/31 02:50:29;;;;;;;0.23;0.20;;;;;;;;;;4972910;28;20205;-70
2021/12/31 02:52:59;;;;;;;0.43;0.37;;;;;;;;;;4973259;28;20232;-70
2021/12/31 02:55:31;;;;;;;0.40;0.40;;;;;;;;;;4962275;28;20289;-71
2021/12/31 02:58:00;;;;;;;0.63;0.63;;;;;;;;;;4969724;28;20217;-70
2021/12/31 03:00:30;;;;;;;0.40;0.40;;;;;;;;;;4966748;28;20213;-71
2021/12/31 03:03:01;;;;;;;0.40;0.40;;;;;;;;;;4973892;28;20194;-71
2021/12/31 03:05:32;;;;;;;0.37;0.37;;;;;;;;;;4974132;28;20206;-70
2021/12/31 03:08:03;;;;;;;0.33;0.33;;;;;;;;;;4972958;28;20715;-70
2021/12/31 03:10:34;;;;;;;0.40;0.40;;;;;;;;;;4962526;28;20666;-71
2021/12/31 03:13:04;;;;;;;0.53;0.43;;;;;;;;;;4973868;28;20262;-70
2021/12/31 03:15:33;;;;;;;1.97;0.47;;;;;;;;;;4973235;28;20225;-70
2021/12/31 03:18:06;;;;;;;0.97;0.43;;;;;;;;;;4975981;28;20222;-70
2021/12/31 03:20:38;;;;;;;0.30;0.30;;;;;;;;;;4961030;28;20233;-70
2021/12/31 03:23:08;;;;;;;0.37;0.33;;;;;;;;;;4957557;29;20187;-70
2021/12/31 03:25:38;;;;;;;1.07;0.33;;;;;;;;;;4961815;28;20202;-70
2021/12/31 03:28:07;;;;;;;0.43;0.43;;;;;;;;;;4968458;28;20226;-71
2021/12/31 03:30:37;;;;;;;0.47;0.47;;;;;;;;;;4963331;28;20206;-69
2021/12/31 03:33:07;;;;;;;1.10;0.53;;;;;;;;;;4943407;28;20261;-71
2021/12/31 03:35:39;;;;;;;0.30;0.30;;;;;;;;;;4976950;28;20198;-70
2021/12/31 03:38:08;;;;;;;0.40;0.40;;;;;;;;;;4961530;28;20227;-70
2021/12/31 03:40:38;;;;;;;1.30;0.40;;;;;;;;;;4957711;28;20253;-71
2021/12/31 03:43:08;;;;;;;0.20;0.20;;;;;;;;;;4967552;28;20202;-70
2021/12/31 03:45:40;;;;;;;0.27;0.27;;;;;;;;;;4976364;28;20562;-70
2021/12/31 03:48:12;;;;;;;0.30;0.30;;;;;;;;;;4976516;28;20221;-70
2021/12/31 03:50:45;;;;;;;0.67;0.40;;;;;;;;;;4963020;28;20194;-70
2021/12/31 03:53:17;;;;;;;0.30;0.30;;;;;;;;;;4956729;29;20253;-70
2021/12/31 03:55:51;;;;;;;0.30;0.30;;;;;;;;;;4957622;28;20238;-72
2021/12/31 03:58:20;;;;;;;0.77;0.37;;;;;;;;;;4963287;28;20224;-71
2021/12/31 04:00:51;;;;;;;0.50;0.50;;;;;;;;;;4976431;28;20636;-70
2021/12/31 04:03:29;;;;;;;0.30;0.30;;;;;;;;;;4976639;28;20202;-70
2021/12/31 04:06:05;;;;;;;0.47;0.47;;;;;;;;;;4976396;28;20226;-71
2021/12/31 04:08:34;;;;;;;1.07;0.57;;;;;;;;;;4975265;28;20779;-70
2021/12/31 04:11:05;;;;;;;0.67;0.60;;;;;;;;;;4963980;28;20199;-70
2021/12/31 04:13:35;;;;;;;0.47;0.47;;;;;;;;;;4971167;28;20229;-70
2021/12/31 04:16:05;;;;;;;0.60;0.57;;;;;;;;;;4975984;28;20669;-69
2021/12/31 04:18:36;;;;;;;0.40;0.40;;;;;;;;;;4975234;28;20228;-72
2021/12/31 04:21:08;;;;;;;0.37;0.37;;;;;;;;;;4976219;28;20201;-69
2021/12/31 04:23:48;;;;;;;0.30;0.30;;;;;;;;;;4975669;28;20261;-70
2021/12/31 04:26:28;;;;;;;0.20;0.20;;;;;;;;;;4969372;28;20665;-71
2021/12/31 04:29:12;;;;;;;0.63;0.47;;;;;;;;;;4961817;28;20619;-70
2021/12/31 04:31:44;;;;;;;0.77;0.57;;;;;;;;;;4967430;28;20202;-71
2021/12/31 04:34:14;;;;;;;0.83;0.73;;;;;;;;;;4975982;28;20566;-70
2021/12/31 04:36:50;;;;;;;0.47;0.47;;;;;;;;;;4975786;28;20226;-70
2021/12/31 04:39:21;;;;;;;0.50;0.40;;;;;;;;;;4972079;28;20226;-70
2021/12/31 04:41:51;;;;;;;0.47;0.47;;;;;;;;;;4956409;29;20214;-71
2021/12/31 04:44:23;;;;;;;0.97;0.43;;;;;;;;;;4965881;28;20210;-71
2021/12/31 04:46:56;;;;;;;0.60;0.60;;;;;;;;;;4974467;28;20222;-71
2021/12/31 04:49:28;;;;;;;1.07;0.57;;;;;;;;;;4959045;28;20198;-71
2021/12/31 04:52:00;;;;;;;0.67;0.53;;;;;;;;;;4974708;28;20289;-72
2021/12/31 04:54:29;;;;;;;0.57;0.57;;;;;;;;;;4975404;28;20229;-71
2021/12/31 04:57:00;;;;;;;0.37;0.37;;;;;;;;;;4974872;28;20222;-70
2021/12/31 04:59:29;;;;;;;1.73;0.30;;;;;;;;;;4970596;28;20268;-71
2021/12/31 05:01:58;;;;;;;0.57;0.37;;;;;;;;;;4975264;28;20206;-70
2021/12/31 05:04:28;;;;;;;0.33;0.33;;;;;;;;;;4965606;28;20212;-70
2021/12/31 05:06:59;;;;;;;0.40;0.40;;;;;;;;;;4974744;28;20233;-71
2021/12/31 05:09:29;;;;;;;0.27;0.23;;;;;;;;;;4975134;28;20293;-70
2021/12/31 05:11:58;;;;;;;0.33;0.33;;;;;;;;;;4973061;28;20260;-70
2021/12/31 05:14:28;;;;;;;0.27;0.27;;;;;;;;;;4974636;28;20217;-71
2021/12/31 05:16:59;;;;;;;0.23;0.23;;;;;;;;;;4975045;28;20229;-70
2021/12/31 05:19:29;;;;;;;0.27;0.27;;;;;;;;;;4971562;28;20202;-71
2021/12/31 05:22:00;;;;;;;1.40;0.30;;;;;;;;;;4973757;28;20202;-71
2021/12/31 05:24:33;;;;;;;0.23;0.23;;;;;;;;;;4954360;28;20240;-72
2021/12/31 05:27:06;;;;;;;0.73;0.23;;;;;;;;;;4970829;28;20772;-70
2021/12/31 05:29:36;;;;;;;0.50;0.27;;;;;;;;;;4974799;28;20197;-70
2021/12/31 05:32:06;;;;;;;0.20;0.20;;;;;;;;;;4974660;28;20198;-70
2021/12/31 05:34:36;;;;;;;0.20;0.20;;;;;;;;;;4974998;28;20214;-70
2021/12/31 05:37:07;;;;;;;0.37;0.30;;;;;;;;;;4973989;28;20264;-70
2021/12/31 05:39:37;;;;;;;0.27;0.27;;;;;;;;;;4974421;28;20206;-71
2021/12/31 05:42:07;;;;;;;0.43;0.20;;;;;;;;;;4974364;28;20237;-72
2021/12/31 05:44:37;;;;;;;0.23;0.10;;;;;;;;;;4974531;28;20198;-70
2021/12/31 05:47:07;;;;;;;0.13;0.13;;;;;;;;;;4971422;28;20261;-70
2021/12/31 05:49:37;;;;;;;0.53;0.20;;;;;;;;;;4972960;28;20222;-70
2021/12/31 05:52:09;;;;;;;0.37;0.20;;;;;;;;;;4973731;28;20209;-70
2021/12/31 05:54:39;;;;;;;0.47;0.20;;;;;;;;;;4973177;28;20225;-70
2021/12/31 05:57:09;;;;;;;0.30;0.20;;;;;;;;;;4975887;28;20217;-70
2021/12/31 05:59:39;;;;;;;0.30;0.20;;;;;;;;;;4974059;28;20213;-70
2021/12/31 06:02:09;;;;;;;0.40;0.27;;;;;;;;;;4967400;28;20574;-69
2021/12/31 06:04:39;;;;;;;0.37;0.20;;;;;;;;;;4956907;28;20278;-71
2021/12/31 06:07:14;;;;;;;0.70;0.23;;;;;;;;;;4968957;28;20229;-70
2021/12/31 06:09:45;;;;;;;0.20;0.20;;;;;;;;;;4972169;28;20292;-70
2021/12/31 06:12:16;;;;;;;0.50;0.27;;;;;;;;;;4973129;28;20194;-70
2021/12/31 06:14:48;;;;;;;0.13;0.10;;;;;;;;;;4974743;28;20681;-70
2021/12/31 06:17:22;;;;;;;0.20;0.20;;;;;;;;;;4974266;28;20225;-70
2021/12/31 06:19:53;;;;;;;0.07;0.07;;;;;;;;;;4972887;28;20266;-69
2021/12/31 06:22:25;;;;;;;0.10;0.10;;;;;;;;;;4970598;28;20199;-69
2021/12/31 06:24:56;;;;;;;0.20;0.20;;;;;;;;;;4957706;28;20202;-70
2021/12/31 06:27:26;;;;;;;0.27;0.10;;;;;;;;;;4973540;28;20641;-70
2021/12/31 06:29:57;;;;;;;0.10;0.10;;;;;;;;;;4971312;28;20237;-70
2021/12/31 06:32:28;;;;;;;0.13;0.13;;;;;;;;;;4970869;28;20276;-69
2021/12/31 06:34:58;;;;;;;0.10;0.10;;;;;;;;;;4955437;28;20723;-70
2021/12/31 06:37:29;;;;;;;0.10;0.10;;;;;;;;;;4954831;28;20236;-69
2021/12/31 06:40:05;;;;;;;0.00;0.00;;;;;;;;;;4974746;28;20293;-71
2021/12/31 06:42:36;;;;;;;0.30;0.10;;;;;;;;;;4973065;28;20205;-70
2021/12/31 06:45:06;;;;;;;0.47;0.30;;;;;;;;;;4973818;28;20208;-70
2021/12/31 06:47:36;;;;;;;0.20;0.20;;;;;;;;;;4972950;28;20724;-70
2021/12/31 06:50:10;;;;;;;0.10;0.10;;;;;;;;;;4970931;28;20194;-70
2021/12/31 06:52:43;;;;;;;0.00;0.00;;;;;;;;;;4975437;28;20205;-70
2021/12/31 06:55:13;;;;;;;0.10;0.10;;;;;;;;;;4977868;28;20229;-70
2021/12/31 06:57:46;;;;;;;0.20;0.07;;;;;;;;;;4975633;28;20256;-70
2021/12/31 07:00:18;;;;;;;0.20;0.20;;;;;;;;;;4974792;28;20621;-69
2021/12/31 07:02:48;;;;;;;0.23;0.23;;;;;;;;;;4958377;29;20262;-69
2021/12/31 07:05:19;;;;;;;0.17;0.13;;;;;;;;;;4972369;28;20202;-70
2021/12/31 07:07:51;;;;;;;0.20;0.20;;;;;;;;;;4972571;28;20226;-71
2021/12/31 07:10:22;;;;;;;0.47;0.20;;;;;;;;;;4976585;28;20202;-70
2021/12/31 07:12:57;;;;;;;0.17;0.17;;;;;;;;;;4977410;28;20194;-73
2021/12/31 07:15:28;;;;;;;0.20;0.20;;;;;;;;;;4976708;28;20579;-73
2021/12/31 07:17:59;;;;;;;0.10;0.10;;;;;;;;;;4958034;28;20238;-73
2021/12/31 07:20:31;;;;;;;0.33;0.27;;;;;;;;;;4977040;28;20256;-72
2021/12/31 07:23:06;;;;;;;0.20;0.20;;;;;;;;;;4976983;28;20273;-72
2021/12/31 07:25:38;;;;;;;0.67;0.20;;;;;;;;;;4976432;28;20626;-72
2021/12/31 07:28:11;;;;;;;0.27;0.20;;;;;;;;;;4960867;28;20225;-72
2021/12/31 07:30:41;;;;;;;0.20;0.20;;;;;;;;;;4973681;28;20198;-72
2021/12/31 07:33:15;;;;;;;0.33;0.30;;;;;;;;;;4943254;28;20721;-72
2021/12/31 07:35:46;;;;;;;0.20;0.20;;;;;;;;;;4965542;28;20592;-72
2021/12/31 07:38:20;;;;;;;0.53;0.27;;;;;;;;;;4972492;28;20233;-73
2021/12/31 07:40:51;;;;;;;0.10;0.10;;;;;;;;;;4962632;28;20594;-72
2021/12/31 07:43:21;;;;;;;0.10;0.10;;;;;;;;;;4963965;28;20273;-73
2021/12/31 07:45:52;;;;;;;0.27;0.13;;;;;;;;;;4974299;28;20679;-72
2021/12/31 07:48:23;;;;;;;0.20;0.20;;;;;;;;;;4974792;28;20222;-72
2021/12/31 07:50:54;;;;;;;0.20;0.20;;;;;;;;;;4967859;28;20202;-73
2021/12/31 07:53:28;;;;;;;0.30;0.20;;;;;;;;;;4974688;28;20556;-72
2021/12/31 07:56:00;;;;;;;1.00;0.40;;;;;;;;;;4970889;28;20322;-72
2021/12/31 07:58:30;;;;;;;0.23;0.17;;;;;;;;;;4972913;28;20764;-72
2021/12/31 08:00:59;;;;;;;0.10;0.10;;;;;;;;;;4974664;28;20297;-72
2021/12/31 08:03:33;;;;;;;0.17;0.10;;;;;;;;;;4975057;28;20206;-72
2021/12/31 08:06:03;;;;;;;0.20;0.20;;;;;;;;;;4959006;28;20301;-72
2021/12/31 08:08:34;;;;;;;1.50;0.20;;;;;;;;;;4975431;28;20214;-72
2021/12/31 08:11:06;;;;;;;0.30;0.30;;;;;;;;;;4959979;28;20261;-72
2021/12/31 08:13:37;;;;;;;0.57;0.30;;;;;;;;;;4959720;28;20697;-73
2021/12/31 08:16:07;;;;;;;1.03;0.17;;;;;;;;;;4972082;28;20234;-72
2021/12/31 08:18:37;;;;;;;0.20;0.10;;;;;;;;;;4975419;28;20257;-72
2021/12/31 08:21:09;;;;;;;0.10;0.10;;;;;;;;;;4968829;28;20202;-72
2021/12/31 08:23:42;;;;;;;0.20;0.10;;;;;;;;;;4976324;28;20285;-72
2021/12/31 08:26:12;;;;;;;0.10;0.10;;;;;;;;;;4975736;28;20658;-72
2021/12/31 08:28:42;;;;;;;0.63;0.10;;;;;;;;;;4964724;28;20238;-72
2021/12/31 08:31:13;;;;;;;0.10;0.10;;;;;;;;;;4966042;28;20210;-72
2021/12/31 08:33:42;;;;;;;0.10;0.10;;;;;;;;;;4967132;28;20667;-73
2021/12/31 08:36:10;;;;;;;0.00;0.00;;;;;;;;;;4970585;28;20268;-73
2021/12/31 08:38:38;;;;;;;1.70;0.10;;;;;;;;;;4974699;28;20689;-72
2021/12/31 08:41:08;;;;;;;0.00;0.00;;;;;;;;;;4976137;28;20252;-71
2021/12/31 08:43:57;;;;;;;0.00;0.00;;;;;;;;;;4975039;28;20249;-73
2021/12/31 08:46:26;;;;;;;0.10;0.10;;;;;;;;;;4974339;28;20206;-73
2021/12/31 08:48:54;;;;;;;0.00;0.00;;;;;;;;;;4974867;28;20216;-73
2021/12/31 08:51:23;;;;;;;0.73;0.10;;;;;;;;;;4974619;28;20213;-73
2021/12/31 08:53:51;;;;;;;0.83;0.10;;;;;;;;;;4975747;28;20351;-73
2021/12/31 08:56:21;;;;;;;0.10;0.10;;;;;;;;;;4975069;28;20629;-73
2021/12/31 08:58:49;;;;;;;0.10;0.10;;;;;;;;;;4974516;28;20630;-73
2021/12/31 09:01:18;;;;;;;0.10;0.10;;;;;;;;;;4978529;28;20284;-73
2021/12/31 09:03:46;;;;;;;0.17;0.17;;;;;;;;;;4971011;28;20660;-73
2021/12/31 09:06:17;;;;;;;0.10;0.10;;;;;;;;;;4971123;28;20213;-74
2021/12/31 09:08:46;;;;;;;0.00;0.00;;;;;;;;;;4964885;28;20565;-72
2021/12/31 09:11:16;;;;;;;0.00;0.00;;;;;;;;;;4975600;28;20264;-73
2021/12/31 09:13:47;;;;;;;0.10;0.10;;;;;;;;;;4974382;28;20201;-73
2021/12/31 09:16:16;;;;;;;0.10;0.10;;;;;;;;;;4968364;28;20230;-73
2021/12/31 09:18:45;;;;;;;0.00;0.00;;;;;;;;;;4973879;28;20216;-73
2021/12/31 09:21:14;;;;;;;0.00;0.00;;;;;;;;;;4974225;28;20205;-73
2021/12/31 09:23:42;;;;;;;0.00;0.00;;;;;;;;;;4974012;28;20666;-74
2021/12/31 09:26:10;;;;;;;0.00;0.00;;;;;;;;;;4963667;28;20202;-73
2021/12/31 09:28:39;;;;;;;1.00;0.20;;;;;;;;;;4974719;28;20277;-73
2021/12/31 09:31:10;;;;;;;0.00;0.00;;;;;;;;;;4974889;28;20241;-73
2021/12/31 09:33:39;;;;;;;0.10;0.10;;;;;;;;;;4973768;28;20205;-73
2021/12/31 09:36:07;;;;;;;0.00;0.00;;;;;;;;;;4973541;28;20229;-72
2021/12/31 09:38:36;;;;;;;0.17;0.17;;;;;;;;;;4970219;28;20229;-73
2021/12/31 09:41:04;;;;;;;0.00;0.00;;;;;;;;;;4969901;28;20215;-73
2021/12/31 09:43:33;;;;;;;0.10;0.10;;;;;;;;;;4974835;28;21657;-73
2021/12/31 09:46:01;;;;;;;0.00;0.00;;;;;;;;;;4973239;28;20260;-72
2021/12/31 09:48:31;;;;;;;0.10;0.00;;;;;;;;;;4974400;28;20218;-73
2021/12/31 09:51:02;;;;;;;0.00;0.00;;;;;;;;;;4971436;28;20732;-73
2021/12/31 09:53:31;;;;;;;0.00;0.00;;;;;;;;;;4974263;28;20216;-73
2021/12/31 09:55:59;;;;;;;0.20;0.00;;;;;;;;;;4969205;28;20284;-74
2021/12/31 09:58:28;;;;;;;0.00;0.00;;;;;;;;;;4967257;28;20233;-73
2021/12/31 10:01:00;;;;;;;0.00;0.00;;;;;;;;;;4974267;28;20285;-73
2021/12/31 10:03:30;;;;;;;0.00;0.00;;;;;;;;;;4973880;28;20605;-73
2021/12/31 10:06:01;;;;;;;0.10;0.10;;;;;;;;;;4967493;28;20554;-73
2021/12/31 10:08:30;;;;;;;0.00;0.00;;;;;;;;;;4980478;28;20225;-71
2021/12/31 10:11:05;;;;;;;0.10;0.00;;;;;;;;;;4983324;28;20232;-72
2021/12/31 10:13:34;;;;;;;0.73;0.20;;;;;;;;;;4974349;28;20201;-72
2021/12/31 10:16:03;;;;;;;0.00;0.00;;;;;;;;;;4974384;28;20568;-72
2021/12/31 10:18:32;;;;;;;0.00;0.00;;;;;;;;;;4966436;28;20229;-71
2021/12/31 10:21:02;;;;;;;0.00;0.00;;;;;;;;;;4975146;28;20580;-71
2021/12/31 10:23:30;;;;;;;0.00;0.00;;;;;;;;;;4975693;28;20201;-70
2021/12/31 10:26:07;;;;;;;0.00;0.00;;;;;;;;;;4960240;28;20217;-71
2021/12/31 10:28:36;;;;;;;0.00;0.00;;;;;;;;;;4982270;28;20224;-71
2021/12/31 10:31:11;;;;;;;0.00;0.00;;;;;;;;;;4977479;28;20260;-72
2021/12/31 10:33:41;;;;;;;0.00;0.00;;;;;;;;;;4973776;28;20201;-71
2021/12/31 10:36:11;;;;;;;0.00;0.00;;;;;;;;;;4973166;28;20217;-74
2021/12/31 10:38:40;;;;;;;0.00;0.00;;;;;;;;;;4971030;28;20233;-71
2021/12/31 10:41:09;;;;;;;0.00;0.00;;;;;;;;;;4975844;28;20209;-72
2021/12/31 10:43:37;;;;;;;0.00;0.00;;;;;;;;;;4970328;28;20210;-72
2021/12/31 10:46:07;;;;;;;0.10;0.00;;;;;;;;;;4973527;28;20268;-71
2021/12/31 10:48:40;;;;;;;0.00;0.00;;;;;;;;;;4976427;28;20333;-72
2021/12/31 10:51:09;;;;;;;0.00;0.00;;;;;;;;;;4969073;28;20210;-71
2021/12/31 10:53:38;;;;;;;0.00;0.00;;;;;;;;;;4973703;28;20330;-71
2021/12/31 10:56:08;;;;;;;0.00;0.00;;;;;;;;;;4978348;28;20626;-71
2021/12/31 10:58:37;;;;;;;0.00;0.00;;;;;;;;;;4970699;28;20218;-71
2021/12/31 11:01:07;;;;;;;0.00;0.00;;;;;;;;;;4972599;28;20206;-71
2021/12/31 11:03:36;;;;;;;0.00;0.00;;;;;;;;;;4971549;28;20202;-72
2021/12/31 11:06:07;;;;;;;0.00;0.00;;;;;;;;;;4973110;28;20733;-71
2021/12/31 11:08:36;;;;;;;0.00;0.00;;;;;;;;;;4972133;28;20647;-71
2021/12/31 11:11:06;;;;;;;0.00;0.00;;;;;;;;;;4627149;28;9999837;-72
2021/12/31 11:13:34;;;;;;;0.00;0.00;;;;;;;;;;4986100;28;20213;-71
2021/12/31 11:16:03;;;;;;;0.00;0.00;;;;;;;;;;4974018;28;20586;-71
2021/12/31 11:18:31;;;;;;;0.00;0.00;;;;;;;;;;4978684;28;20256;-71
2021/12/31 11:21:02;;;;;;;0.00;0.00;;;;;;;;;;4979846;28;20233;-71
2021/12/31 11:23:31;;;;;;;0.00;0.00;;;;;;;;;;4979290;28;20204;-71
2021/12/31 11:26:01;;;;;;;0.00;0.00;;;;;;;;;;4960801;28;20216;-71
2021/12/31 11:28:32;;;;;;;0.00;0.00;;;;;;;;;;4992903;28;20221;-71
2021/12/31 11:31:15;;;;;;;0.00;0.00;;;;;;;;;;4978004;28;20209;-71
2021/12/31 11:33:44;;;;;;;0.00;0.00;;;;;;;;;;4971533;28;20202;-71
2021/12/31 11:36:13;;;;;;;0.00;0.00;;;;;;;;;;4978524;28;20214;-71
2021/12/31 11:38:47;;;;;;;0.00;0.00;;;;;;;;;;4983981;28;20283;-71
2021/12/31 11:41:16;;;;;;;0.10;0.10;;;;;;;;;;4977940;28;20194;-71
2021/12/31 11:43:46;;;;;;;0.00;0.00;;;;;;;;;;4988752;28;20235;-71
2021/12/31 11:46:30;;;;;;;0.00;0.00;;;;;;;;;;4976027;28;20210;-72
2021/12/31 11:48:59;;;;;;;0.00;0.00;;;;;;;;;;4970693;28;20209;-70
2021/12/31 11:51:29;;;;;;;0.03;0.03;;;;;;;;;;4980936;28;20654;-71
2021/12/31 11:54:12;;;;;;;0.00;0.00;;;;;;;;;;4971441;28;20559;-70
2021/12/31 11:56:53;;;;;;;0.00;0.00;;;;;;;;;;4974358;28;20757;-70
2021/12/31 11:59:30;;;;;;;0.00;0.00;;;;;;;;;;4986258;28;20217;-71
2021/12/31 12:02:11;;;;;;;0.00;0.00;;;;;;;;;;4980805;28;20202;-71
2021/12/31 12:04:40;;;;;;;0.00;0.00;;;;;;;;;;4975637;28;20296;-73
2021/12/31 12:07:11;;;;;;;0.00;0.00;;;;;;;;;;4976528;28;20225;-73
2021/12/31 12:09:58;;;;;;;0.00;0.00;;;;;;;;;;4978513;28;20194;-73
2021/12/31 12:12:27;;;;;;;0.00;0.00;;;;;;;;;;4974868;28;20206;-73
2021/12/31 12:14:57;;;;;;;0.00;0.00;;;;;;;;;;4973641;28;20218;-73
2021/12/31 12:17:43;;;;;;;0.00;0.00;;;;;;;;;;4962656;28;20305;-73
2021/12/31 12:20:13;;;;;;;0.10;0.00;;;;;;;;;;4961711;28;20790;-73
2021/12/31 12:22:49;;;;;;;0.00;0.00;;;;;;;;;;4976397;28;20202;-73
2021/12/31 12:25:19;;;;;;;0.00;0.00;;;;;;;;;;4976084;28;20213;-73
2021/12/31 12:27:48;;;;;;;0.00;0.00;;;;;;;;;;4975611;28;20288;-73
2021/12/31 12:30:18;;;;;;;0.00;0.00;;;;;;;;;;4975462;28;20309;-72
2021/12/31 12:33:06;;;;;;;0.00;0.00;;;;;;;;;;4975885;28;20244;-73
2021/12/31 12:35:37;;;;;;;0.00;0.00;;;;;;;;;;4973974;28;20213;-72
2021/12/31 12:38:11;;;;;;;0.10;0.10;;;;;;;;;;4973799;28;20233;-73
2021/12/31 12:40:40;;;;;;;0.00;0.00;;;;;;;;;;4976125;28;20236;-73
2021/12/31 12:43:13;;;;;;;0.00;0.00;;;;;;;;;;4975750;28;20209;-73
2021/12/31 12:45:44;;;;;;;0.00;0.00;;;;;;;;;;4973099;28;20210;-73
2021/12/31 12:48:13;;;;;;;0.00;0.00;;;;;;;;;;4995181;28;20226;-72
2021/12/31 12:50:48;;;;;;;0.00;0.00;;;;;;;;;;4986816;28;20202;-73
2021/12/31 12:53:23;;;;;;;0.00;0.00;;;;;;;;;;4995395;28;20201;-73
2021/12/31 12:56:02;;;;;;;0.00;0.00;;;;;;;;;;4995402;28;20666;-73
2021/12/31 12:58:30;;;;;;;0.00;0.00;;;;;;;;;;4980806;28;20244;-73
2021/12/31 13:01:03;;;;;;;0.00;0.00;;;;;;;;;;4975576;28;20236;-73
2021/12/31 13:03:32;;;;;;;0.17;0.00;;;;;;;;;;4990840;28;20205;-73
2021/12/31 13:06:04;;;;;;;0.00;0.00;;;;;;;;;;4975179;28;20252;-73
2021/12/31 13:08:33;;;;;;;0.00;0.00;;;;;;;;;;4994874;28;20225;-73
2021/12/31 13:11:03;;;;;;;0.00;0.00;;;;;;;;;;4970346;28;20274;-72
2021/12/31 13:13:36;;;;;;;0.00;0.00;;;;;;;;;;4971765;28;20205;-72
2021/12/31 13:16:07;;;;;;;0.00;0.00;;;;;;;;;;4974560;28;20665;-72
2021/12/31 13:18:37;;;;;;;0.00;0.00;;;;;;;;;;4970069;28;20317;-73
2021/12/31 13:21:07;;;;;;;0.00;0.00;;;;;;;;;;4972784;28;20210;-73
2021/12/31 13:23:36;;;;;;;0.00;0.00;;;;;;;;;;4986395;28;20249;-73
2021/12/31 13:26:18;;;;;;;0.23;0.07;;;;;;;;;;4974982;28;20615;-73
2021/12/31 13:28:46;;;;;;;0.00;0.00;;;;;;;;;;4955673;28;20696;-73
2021/12/31 13:31:17;;;;;;;0.00;0.00;;;;;;;;;;4983344;28;20232;-73
2021/12/31 13:33:46;;;;;;;0.00;0.00;;;;;;;;;;4972110;28;20572;-73
2021/12/31 13:36:16;;;;;;;0.00;0.00;;;;;;;;;;4971221;28;20650;-72
2021/12/31 13:39:01;;;;;;;0.10;0.00;;;;;;;;;;4961741;28;20281;-72
2021/12/31 13:41:30;;;;;;;0.00;0.00;;;;;;;;;;4974958;28;20252;-72
2021/12/31 13:44:21;;;;;;;0.00;0.00;;;;;;;;;;4984186;28;20287;-72
2021/12/31 13:46:59;;;;;;;0.00;0.00;;;;;;;;;;4984624;28;20308;-73
2021/12/31 13:49:27;;;;;;;0.10;0.10;;;;;;;;;;4972024;28;20194;-73
2021/12/31 13:51:56;;;;;;;0.00;0.00;;;;;;;;;;4974910;28;20264;-73
2021/12/31 13:54:35;;;;;;;0.00;0.00;;;;;;;;;;4974628;28;20198;-73
2021/12/31 13:57:04;;;;;;;0.30;0.10;;;;;;;;;;4974483;28;20276;-72
2021/12/31 13:59:39;;;;;;;0.00;0.00;;;;;;;;;;4979180;28;20264;-72
2021/12/31 14:02:14;;;;;;;0.10;0.10;;;;;;;;;;4974833;28;20256;-73
2021/12/31 14:05:02;;;;;;;0.00;0.00;;;;;;;;;;4966812;28;20194;-72
2021/12/31 14:07:33;;;;;;;0.00;0.00;;;;;;;;;;4979484;28;20224;-72
2021/12/31 14:10:03;;;;;;;0.00;0.00;;;;;;;;;;4993803;28;20196;-73
2021/12/31 14:12:44;;;;;;;0.00;0.00;;;;;;;;;;4993714;28;20235;-72
2021/12/31 14:15:13;;;;;;;0.07;0.07;;;;;;;;;;4985390;28;20197;-72
2021/12/31 14:17:43;;;;;;;0.00;0.00;;;;;;;;;;4981244;28;20267;-72
2021/12/31 14:20:12;;;;;;;0.10;0.10;;;;;;;;;;4972287;28;20675;-72
2021/12/31 14:22:41;;;;;;;0.00;0.00;;;;;;;;;;4974791;28;20206;-73
2021/12/31 14:25:09;;;;;;;0.00;0.00;;;;;;;;;;4974260;28;20202;-72
2021/12/31 14:27:38;;;;;;;0.00;0.00;;;;;;;;;;4981834;28;20739;-73
2021/12/31 14:30:08;;;;;;;0.00;0.00;;;;;;;;;;4632873;28;9999774;-73
2021/12/31 14:32:37;;;;;;;0.10;0.00;;;;;;;;;;4974772;28;20935;-72
2021/12/31 14:35:09;;;;;;;0.00;0.00;;;;;;;;;;4959297;28;20210;-72
2021/12/31 14:37:37;;;;;;;0.10;0.10;;;;;;;;;;4952188;28;20234;-73
2021/12/31 14:40:11;;;;;;;0.00;0.00;;;;;;;;;;4970826;28;20551;-72
2021/12/31 14:42:41;;;;;;;0.00;0.00;;;;;;;;;;4969369;28;20252;-72
2021/12/31 14:45:10;;;;;;;0.30;0.10;;;;;;;;;;4967831;28;20277;-73
2021/12/31 14:47:39;;;;;;;0.07;0.07;;;;;;;;;;4954453;28;20222;-73
2021/12/31 14:50:10;;;;;;;0.00;0.00;;;;;;;;;;4970711;28;20205;-73
2021/12/31 14:52:39;;;;;;;0.00;0.00;;;;;;;;;;4970048;28;20201;-73
2021/12/31 14:55:08;;;;;;;0.00;0.00;;;;;;;;;;4981790;28;20859;-73
2021/12/31 14:57:37;;;;;;;0.00;0.00;;;;;;;;;;4957654;28;20281;-74
2021/12/31 15:00:06;;;;;;;0.73;0.23;;;;;;;;;;4970813;28;20225;-73
2021/12/31 15:02:34;;;;;;;0.00;0.00;;;;;;;;;;4971076;28;20657;-73
2021/12/31 15:05:03;;;;;;;0.00;0.00;;;;;;;;;;4982140;28;20317;-73
2021/12/31 15:07:38;;;;;;;0.00;0.00;;;;;;;;;;4970752;28;20222;-73
2021/12/31 15:10:08;;;;;;;0.00;0.00;;;;;;;;;;4987127;28;20810;-76